메인 페이지
METAR-TAF:

METAR-TAF

공항 :

라바트, 모로코

위도: 34-03N, 경도: 006-46W, 고도: 84m

현재 날씨관측

예보는 5분 전, 09:30시(UTC)에 발표되었습니다.
북북동3kt북북서풍과 풍을 오가는
온도 19°C
습도 68%
기압 1014 hPa
시정: 8000m
고도 2000ft 상공 구름 많음

METAR: GMME 200930Z 03003KT 330V080 8000 BKN020 19/13 Q1014 NOSIG

시각: 09:35 (09:35 UTC)

예보

예보는 4 시간 35분 전, 05:00시(UTC)에 발표되었습니다.
예보 대상 시간: 20일 06시부터 21일 12시까지 (UTC)
북동4kt
시정: 8000m
고도 1500ft 상공 구름 보통
일시적
20일 08시부터 20일 18시까지 (UTC)
북서8kt
일시적
20일 18시부터 20일 24시까지 (UTC)
남서6kt

TAF: GMME 200500Z 2006/2112 04004KT 8000 SCT015 TEMPO 2008/2018 32008KT TEMPO 2018/2024 22006KT

4,000개 이상의 공항 관측 자료 및 예보 (METAR 및 TAF 보고).

지도상에서 검색 가능한 기상관측소가 노란 점과 빨간 점으로 표시되어 있습니다.

기상관측소 명을 보려면 표시 위로 마우스를 이동하세요.

날씨 관측과 예보를 보려면 클릭하세요.

지도 변경 : 확대하려면 엑스 표시가 있는 녹색 버튼, 축소하려면 빼기 표시가 있는 녹색 버튼, 다음 페이지의 지도를 보려면 녹색 화살표를 클릭하세요.


METAR-TAF: